createdAt,value
2023-10-27T00:03:18.957Z,9.65
2023-10-27T00:08:39.855Z,9.05
2023-10-27T00:14:01.051Z,8.68
2023-10-27T00:19:22.251Z,10.57
2023-10-27T00:24:43.132Z,9.88
2023-10-27T00:30:04.698Z,10.35
2023-10-27T00:35:25.763Z,9.48
2023-10-27T00:40:47.261Z,9.90
2023-10-27T00:46:08.165Z,8.80
2023-10-27T00:51:29.881Z,9.30
2023-10-27T00:56:51.186Z,8.23
2023-10-27T01:02:12.698Z,10.00
2023-10-27T01:07:35.893Z,8.67
2023-10-27T01:12:56.979Z,9.32
2023-10-27T01:18:17.897Z,9.35
2023-10-27T01:23:38.793Z,9.90
2023-10-27T01:28:59.888Z,8.77
2023-10-27T01:34:21.098Z,9.25
2023-10-27T01:39:42.048Z,8.30
2023-10-27T01:45:07.189Z,8.57
2023-10-27T01:50:28.321Z,9.32
2023-10-27T01:55:49.360Z,8.98
2023-10-27T02:01:12.118Z,8.25
2023-10-27T02:06:33.057Z,8.38
2023-10-27T02:11:53.844Z,8.50
2023-10-27T02:17:14.721Z,8.55
2023-10-27T02:22:35.737Z,7.65
2023-10-27T02:27:56.964Z,8.40
2023-10-27T02:33:18.082Z,8.32
2023-10-27T02:38:39.200Z,8.32
2023-10-27T02:44:00.182Z,8.32
2023-10-27T02:49:21.219Z,8.38
2023-10-27T02:54:42.067Z,8.57
2023-10-27T03:00:07.440Z,9.13
2023-10-27T03:05:28.195Z,7.57
2023-10-27T03:10:49.452Z,7.95
2023-10-27T03:16:10.387Z,7.30
2023-10-27T03:21:31.190Z,7.40
2023-10-27T03:26:52.381Z,7.45
2023-10-27T03:32:13.446Z,7.63
2023-10-27T03:37:34.812Z,6.35
2023-10-27T03:42:55.854Z,6.78
2023-10-27T03:48:16.737Z,6.60
2023-10-27T03:53:37.912Z,7.47
2023-10-27T03:58:59.096Z,6.90
2023-10-27T04:04:19.917Z,7.22
2023-10-27T04:09:40.933Z,7.95
2023-10-27T04:15:02.660Z,7.38
2023-10-27T04:20:23.827Z,7.60
2023-10-27T04:25:44.733Z,7.88
2023-10-27T04:31:05.935Z,6.80
2023-10-27T04:36:26.775Z,6.97
2023-10-27T04:41:47.914Z,6.20
2023-10-27T04:47:09.070Z,6.45
2023-10-27T04:52:30.115Z,6.68
2023-10-27T04:57:50.985Z,5.82
2023-10-27T05:03:12.060Z,5.82
2023-10-27T05:08:33.045Z,7.13
2023-10-27T05:13:54.108Z,6.88
2023-10-27T05:19:15.096Z,7.28
2023-10-27T06:51:30.386Z,11.35
2023-10-27T06:56:51.608Z,10.98
2023-10-27T07:02:12.913Z,10.07
2023-10-27T07:07:34.061Z,10.27
2023-10-27T07:12:55.271Z,11.32
2023-10-27T07:18:16.385Z,11.20
2023-10-27T07:23:37.526Z,10.93
2023-10-27T07:28:58.501Z,10.55
2023-10-27T07:34:19.672Z,9.20
2023-10-27T07:39:40.677Z,8.68
2023-10-27T07:45:01.847Z,9.15
2023-10-27T07:50:23.096Z,9.38
2023-10-27T07:55:43.981Z,9.60
2023-10-27T08:01:05.120Z,9.05
2023-10-27T08:06:26.139Z,10.27
2023-10-27T08:11:49.816Z,9.65
2023-10-27T08:17:10.602Z,9.00
2023-10-27T08:22:31.909Z,8.75
2023-10-27T08:27:52.912Z,9.27
2023-10-27T08:33:14.180Z,8.75
2023-10-27T08:38:35.323Z,8.43
2023-10-27T08:43:57.089Z,9.35
2023-10-27T08:54:41.624Z,9.85
2023-10-27T09:00:02.917Z,9.73
2023-10-27T09:05:24.000Z,8.63
2023-10-27T09:10:44.920Z,9.57
2023-10-27T09:16:05.879Z,9.73
2023-10-27T09:21:33.351Z,8.68
2023-10-27T09:26:56.223Z,10.00
2023-10-27T09:32:29.343Z,10.32
2023-10-27T09:37:50.918Z,9.60
2023-10-27T09:43:22.023Z,8.85
2023-10-27T09:48:44.326Z,9.30
2023-10-27T09:54:06.380Z,10.68
2023-10-27T09:59:29.149Z,9.27
2023-10-27T10:04:53.338Z,9.05
2023-10-27T10:10:31.162Z,9.90
2023-10-27T10:16:00.087Z,10.40
2023-10-27T10:21:34.778Z,8.98
2023-10-27T10:27:06.879Z,9.68
2023-10-27T10:32:32.630Z,9.65
2023-10-27T10:37:54.379Z,9.45
2023-10-27T10:43:19.367Z,9.75
2023-10-27T10:48:45.774Z,9.52
2023-10-27T10:54:13.314Z,11.23
2023-10-27T10:59:34.064Z,9.95
2023-10-27T11:04:55.106Z,9.43
2023-10-27T11:10:22.355Z,10.23
2023-10-27T11:15:47.007Z,11.10
2023-10-27T11:21:18.872Z,10.77
2023-10-27T11:26:41.031Z,10.75
2023-10-27T11:32:15.967Z,10.85
2023-10-27T11:37:36.894Z,11.68
2023-10-27T11:42:57.950Z,11.02
2023-10-27T11:48:19.218Z,10.75
2023-10-27T11:53:44.131Z,10.68
2023-10-27T11:59:05.834Z,10.98
2023-10-27T12:04:26.913Z,11.15
2023-10-27T12:09:48.131Z,11.38
2023-10-27T12:15:09.678Z,10.50
2023-10-27T12:20:31.194Z,11.07
2023-10-27T12:25:52.257Z,11.73
2023-10-27T12:31:13.792Z,11.75
2023-10-27T12:36:34.778Z,12.10
2023-10-27T12:41:55.889Z,13.23
2023-10-27T12:47:17.349Z,10.80
2023-10-27T12:52:39.302Z,11.40
2023-10-27T12:58:00.856Z,11.25
2023-10-27T13:03:21.750Z,11.88
2023-10-27T13:08:42.624Z,11.15
2023-10-27T13:14:04.412Z,10.52
2023-10-27T13:19:25.279Z,10.60
2023-10-27T13:24:46.472Z,9.48
2023-10-27T13:30:08.237Z,9.27
2023-10-27T13:35:29.533Z,9.73
2023-10-27T13:40:50.593Z,10.73
2023-10-27T13:46:11.520Z,10.20
2023-10-27T13:51:32.883Z,9.75
2023-10-27T13:56:53.772Z,10.50
2023-10-27T14:02:15.651Z,8.95
2023-10-27T14:07:37.282Z,9.77
2023-10-27T14:12:58.215Z,10.27
2023-10-27T14:18:19.173Z,9.65
2023-10-27T14:23:40.210Z,9.32
2023-10-27T14:29:01.756Z,9.77
2023-10-27T14:34:23.193Z,10.82
2023-10-27T14:39:43.973Z,10.10
2023-10-27T14:45:05.449Z,10.10
2023-10-27T14:50:26.514Z,10.38
2023-10-27T14:55:47.649Z,9.55
2023-10-27T15:01:10.708Z,10.52
2023-10-27T15:06:31.455Z,8.60
2023-10-27T15:11:52.629Z,10.25
2023-10-27T15:17:13.574Z,10.05
2023-10-27T15:22:34.664Z,9.95
2023-10-27T15:27:55.900Z,9.10
2023-10-27T15:33:16.906Z,9.68
2023-10-27T15:38:38.667Z,9.50
2023-10-27T15:44:00.145Z,9.25
2023-10-27T15:49:21.154Z,8.52
2023-10-27T15:54:44.719Z,9.10
2023-10-27T16:00:06.450Z,9.00
2023-10-27T16:05:36.686Z,8.90
2023-10-27T16:10:57.791Z,8.40
2023-10-27T16:16:19.006Z,8.35
2023-10-27T16:21:40.232Z,9.30
2023-10-27T16:27:01.209Z,8.77
2023-10-27T16:32:22.282Z,8.77
2023-10-27T16:37:47.078Z,9.18
2023-10-27T16:43:08.118Z,9.45
2023-10-27T16:48:30.187Z,8.32
2023-10-27T16:53:51.013Z,8.40
2023-10-27T16:59:11.871Z,8.85
2023-10-27T17:04:33.121Z,8.98
2023-10-27T17:09:54.007Z,8.18
2023-10-27T17:15:15.047Z,8.55
2023-10-27T17:20:36.086Z,8.00
2023-10-27T17:25:57.925Z,8.38
2023-10-27T17:31:20.684Z,8.73
2023-10-27T17:36:41.875Z,8.13
2023-10-27T17:42:03.176Z,8.82
2023-10-27T17:47:24.389Z,8.68
2023-10-27T17:52:45.442Z,7.85
2023-10-27T17:58:06.512Z,7.47
2023-10-27T18:03:27.555Z,7.82
2023-10-27T18:08:48.417Z,8.13
2023-10-27T18:14:10.243Z,7.82
2023-10-27T18:19:31.255Z,7.70
2023-10-27T18:24:52.400Z,8.00
2023-10-27T18:30:13.654Z,8.48
2023-10-27T18:35:34.878Z,8.93
2023-10-27T18:40:56.057Z,8.77
2023-10-27T18:46:17.023Z,8.85
2023-10-27T18:51:38.155Z,9.48
2023-10-27T18:56:59.187Z,9.95
2023-10-27T19:02:20.462Z,9.75
2023-10-27T19:07:41.433Z,9.73
2023-10-27T19:13:02.382Z,10.90
2023-10-27T19:18:23.476Z,9.38
2023-10-27T19:23:46.139Z,11.05
2023-10-27T19:29:07.141Z,10.27
2023-10-27T19:34:28.237Z,10.30
2023-10-27T19:39:49.107Z,8.95
2023-10-27T19:45:09.979Z,10.23
2023-10-27T19:50:31.787Z,8.68
2023-10-27T19:55:52.940Z,9.32
2023-10-27T20:01:20.721Z,9.55
2023-10-27T20:06:43.363Z,9.63
2023-10-27T20:12:04.631Z,9.38
2023-10-27T20:17:25.549Z,10.20
2023-10-27T20:22:46.562Z,10.48
2023-10-27T20:28:07.332Z,10.65
2023-10-27T20:33:28.381Z,10.10
2023-10-27T20:38:49.371Z,10.05
2023-10-27T20:44:10.575Z,9.68
2023-10-27T20:49:31.613Z,9.02
2023-10-27T20:54:53.517Z,9.77
2023-10-27T21:00:17.732Z,9.27
2023-10-27T21:05:38.625Z,9.45
2023-10-27T21:11:00.252Z,10.35
2023-10-27T21:16:21.454Z,10.73
2023-10-27T21:21:42.587Z,10.50
2023-10-27T21:27:04.047Z,10.65
2023-10-27T21:32:25.191Z,10.25
2023-10-27T21:37:46.203Z,10.30
2023-10-27T21:43:08.379Z,10.70
2023-10-27T21:48:29.715Z,10.75
2023-10-27T21:53:50.622Z,10.63
2023-10-27T21:59:12.374Z,10.70
2023-10-27T22:04:33.862Z,11.10
2023-10-27T22:09:55.172Z,10.65
2023-10-27T22:15:16.699Z,11.63
2023-10-27T22:20:37.993Z,11.32
2023-10-27T22:25:59.221Z,11.50
2023-10-27T22:31:20.062Z,11.63
2023-10-27T22:36:40.924Z,10.35
2023-10-27T22:42:02.126Z,10.55
2023-10-27T22:47:23.095Z,10.85
2023-10-27T22:52:44.456Z,11.88
2023-10-27T22:58:05.239Z,10.85
2023-10-27T23:03:26.876Z,10.68
2023-10-27T23:08:47.880Z,10.25
2023-10-27T23:14:09.205Z,10.23
2023-10-27T23:19:33.334Z,10.25
2023-10-27T23:24:54.341Z,10.10
2023-10-27T23:30:15.576Z,9.98
2023-10-27T23:35:36.610Z,9.88
2023-10-27T23:40:58.390Z,8.63
2023-10-27T23:46:19.465Z,9.85
2023-10-27T23:51:40.610Z,9.27
2023-10-27T23:57:01.811Z,9.55
